Flight Track Log - Related Links

Times and Time Zones

All times are in EDT time to prevent confusion due to time zone crossing. See the N717AN flight status page for this flight to view local times or setup timezone preferences in your user account.

Time Position Orientation Groundspeed Altitude Reporting Facility
EDT Latitude Longitude Course Direction KTS MPH feet Rate Location/Type
Fri 07:04:49 PM 40.6430 -73.7690 217° Southwest 105 121  Level FlightAware ADS-B
Fri 07:05:11 PM 40.6290 -73.7800 211° Southwest 175 201 1,000 Level FlightAware ADS-B
Fri 07:05:25 PM 40.6190 -73.7880 211° Southwest 175 201 600 2,364 Climbing FlightAware ADS-B
Fri 07:05:44 PM 40.6060 -73.7980 210° Southwest 185 213 1,300 1,714 Climbing FlightAware ADS-B
Fri 07:06:00 PM 40.5930 -73.8070 208° Southwest 202 232 1,600 900 Climbing FlightAware ADS-B
Fri 07:06:04 PM 40.5880 -73.8080 189° South 212 244 1,600 750 Level FlightAware ADS-B
Fri 07:06:08 PM 40.5860 -73.8080 180° South 218 251 1,700 1,000 Climbing FlightAware ADS-B
Fri 07:06:34 PM 40.5590 -73.7890 152° Southeast 261 300 2,100 1,059 Climbing FlightAware ADS-B
Fri 07:06:42 PM 40.5530 -73.7800 131° Southeast 265 305 2,300 2,000 Climbing FlightAware ADS-B
Fri 07:06:58 PM 40.5430 -73.7570 120° Southeast 273 314 2,900 2,276 Climbing FlightAware ADS-B
Fri 07:07:11 PM 40.5360 -73.7390 117° Southeast 275 316 3,400 2,364 Climbing FlightAware ADS-B
Fri 07:07:31 PM 40.5250 -73.7090 116° Southeast 279 321 4,200 2,108 Climbing FlightAware ADS-B
Fri 07:07:48 PM 40.5150 -73.6840 118° Southeast 287 330 4,700 1,371 Climbing FlightAware ADS-B
Fri 07:08:06 PM 40.5040 -73.6540 116° Southeast 288 331 5,000 1,263 Climbing FlightAware ADS-B
Fri 07:08:26 PM 40.4910 -73.6210 117° Southeast 298 343 5,500 2,550 Climbing FlightAware ADS-B
Fri 07:08:46 PM 40.4790 -73.5910 118° Southeast 285 328 6,700 2,727 Climbing FlightAware ADS-B
Fri 07:09:10 PM 40.4640 -73.5520 117° Southeast 299 344 7,500 2,167 Climbing FlightAware ADS-B
Fri 07:09:22 PM 40.4590 -73.5320 108° East 299 344 8,000 2,250 Climbing FlightAware ADS-B
Fri 07:09:34 PM 40.4570 -73.5130 98° East 296 341 8,400 2,108 Climbing FlightAware ADS-B
Fri 07:09:59 PM 40.4620 -73.4680 82° East 302 348 9,300 2,341 Climbing FlightAware ADS-B
Fri 07:10:15 PM 40.4650 -73.4380 83° East 303 349 10,000 2,195 Climbing FlightAware ADS-B
Fri 07:10:40 PM 40.4590 -73.3980 101° East 310 357 10,800 1,726 Climbing FlightAware ADS-B
Fri 07:11:28 PM 40.4440 -73.2960 101° East 363 418 12,100 1,750 Climbing FlightAware ADS-B
Fri 07:11:52 PM 40.4341 -73.2392 103° East 386 444 12,900 2,418 Climbing FlightAware ADS-B (KSNC)
Fri 07:12:35 PM 40.4155 -73.1379 104° East 409 471 14,800 2,519 Climbing FlightAware ADS-B (KSNC)
Fri 07:13:13 PM 40.4024 -73.0639 103° East 427 491 16,300 2,286 Climbing FlightAware ADS-B (KSNC)
Fri 07:13:38 PM 40.3910 -72.9797 100° East 436 502 17,200 2,769 Climbing FlightAware ADS-B (KSNC)
Fri 07:14:05 PM 40.3997 -72.9102 81° East 429 494 18,700 2,690 Climbing FlightAware ADS-B (KSNC)
Fri 07:14:36 PM 40.4147 -72.8314 76° East 438 504 19,800 1,935 Climbing FlightAware ADS-B (KSNC)
Fri 07:15:07 PM 40.4355 -72.7535 71° East 455 524 20,700 2,000 Climbing FlightAware ADS-B (KSNC)
Fri 07:15:42 PM 40.4543 -72.6714 73° East 464 534 22,000 2,219 Climbing FlightAware ADS-B (KSNC)
Fri 07:16:20 PM 40.4820 -72.5663 71° East 472 543 23,400 1,974 Climbing FlightAware ADS-B (KSNC)
Fri 07:16:58 PM 40.5038 -72.4521 76° East 483 556 24,500 1,901 Climbing FlightAware ADS-B (KSNC)
Fri 07:18:01 PM 40.5410 -72.2770 74° East 492 566 26,600 1,979 Climbing FlightAware ADS-B
Fri 07:18:32 PM 40.5640 -72.1824 72° East 500 575 27,600 1,781 Climbing FlightAware ADS-B (KSNC)
Fri 07:19:05 PM 40.5850 -72.0920 73° East 505 581 28,500 1,862 Climbing FlightAware ADS-B
Fri 07:19:30 PM 40.5978 -72.0322 74° East 506 582 29,400 1,630 Climbing FlightAware ADS-B (KSNC)
Fri 07:20:26 PM 40.6360 -71.8560 74° East 516 594 30,700 1,780 Climbing FlightAware ADS-B
Fri 07:21:01 PM 40.6590 -71.7500 74° East 509 586 32,100 1,920 Climbing FlightAware ADS-B
Fri 07:21:41 PM 40.6850 -71.6310 74° East 508 585 33,100 692 Climbing FlightAware ADS-B
Fri 07:22:19 PM 40.7100 -71.5130 74° East 508 585 33,000 -86 Descending FlightAware ADS-B
Fri 07:22:51 PM 40.7300 -71.4150 75° East 508 585 33,000  Level FlightAware ADS-B
Fri 07:23:30 PM 40.7520 -71.3140 74° East 507 583 33,000  Level FlightAware ADS-B
Fri 07:24:03 PM 40.7740 -71.2050 75° East 504 580 33,000  Level FlightAware ADS-B
Fri 07:24:44 PM 40.7980 -71.0920 74° East 507 583 33,000  Level FlightAware ADS-B
Fri 07:25:18 PM 40.8210 -70.9820 75° East 506 582 33,000  Level FlightAware ADS-B
Fri 07:26:03 PM 40.8480 -70.8530 74° East 506 582 33,000  Level FlightAware ADS-B
Fri 07:26:49 PM 40.8740 -70.7270 75° East 506 582 33,000  Level FlightAware ADS-B
Fri 07:27:28 PM 40.8990 -70.6000 75° East 506 582 33,000  Level FlightAware ADS-B
Fri 07:28:19 PM 40.9280 -70.4600 75° East 509 586 33,000  Level FlightAware ADS-B
Fri 07:28:55 PM 40.9460 -70.3680 75° East 509 586 33,000  Level FlightAware ADS-B
Fri 07:29:31 PM 40.9650 -70.2760 75° East 509 586 33,000  Level FlightAware ADS-B
Fri 07:30:09 PM 40.9840 -70.1790 75° East 509 586 33,000  Level FlightAware ADS-B
Fri 07:30:45 PM 41.0030 -70.0870 75° East 509 586 33,000  Level FlightAware ADS-B
Fri 07:31:21 PM 41.0220 -69.9940 75° East 509 586 33,000  Level FlightAware ADS-B
Fri 07:31:57 PM 41.0400 -69.9020 75° East 509 586 33,000  Level FlightAware ADS-B
Fri 07:32:33 PM 41.0590 -69.8100 75° East 509 586 33,000  Level FlightAware ADS-B
Fri 07:33:09 PM 41.0780 -69.7170 75° East 509 586 33,000  Level FlightAware ADS-B
Fri 07:33:46 PM 41.0970 -69.6230 75° East 509 586 33,000  Level FlightAware ADS-B
Fri 07:34:22 PM 41.1150 -69.5300 76° East 509 586 33,000  Level FlightAware ADS-B
Fri 07:34:58 PM 41.1340 -69.4380 75° East 509 586 33,000  Level FlightAware ADS-B
Fri 07:35:34 PM 41.1530 -69.3450 75° East 509 586 33,000  Level FlightAware ADS-B
Fri 07:36:10 PM 41.1710 -69.2530 75° East 509 586 33,000  Level FlightAware ADS-B
Fri 07:36:46 PM 41.1900 -69.1600 75° East 509 586 33,000  Level FlightAware ADS-B
Fri 07:37:22 PM 41.2090 -69.0680 75° East 509 586 33,000  Level FlightAware ADS-B
Fri 07:39:09 PM 41.5480 -68.6124 45° Northeast 500 575 33,000  Level FlightAware ADS-B
Fri 07:40:04 PM 41.6087 -68.4654 61° Northeast 499 574 33,000  Level FlightAware ADS-B
Fri 07:40:37 PM 41.6432 -68.3815 61° Northeast 499 574 33,000  Level FlightAware ADS-B
Fri 07:41:08 PM 41.6773 -68.2986 61° Northeast 500 575 33,000  Level FlightAware ADS-B
Fri 07:41:38 PM 41.7133 -68.2105 61° Northeast 500 575 33,000  Level FlightAware ADS-B
Fri 07:42:09 PM 41.7308 -68.1677 61° Northeast 501 577 33,000  Level FlightAware ADS-B
Fri 07:42:48 PM 41.7836 -68.0380 61° Northeast 502 578 33,000  Level FlightAware ADS-B
Fri 07:43:30 PM 41.8366 -67.9073 61° Northeast 503 579 33,000  Level FlightAware ADS-B
Fri 07:44:14 PM 41.8771 -67.8068 62° Northeast 506 582 33,000  Level FlightAware ADS-B
Fri 07:44:54 PM 41.9244 -67.6892 62° Northeast 507 583 33,000  Level FlightAware ADS-B
Fri 07:45:35 PM 41.9532 -67.6173 62° Northeast 507 583 33,000  Level FlightAware ADS-B
Fri 07:46:13 PM 41.8886 -67.7784 242° Southwest 507 583 33,000  Level FlightAware ADS-B
Fri 07:46:48 PM 42.0495 -67.3756 62° Northeast 508 585 33,000  Level FlightAware ADS-B
Fri 07:47:24 PM 42.0620 -67.3443 62° Northeast 507 583 33,000  Level FlightAware ADS-B
Fri 07:48:00 PM 42.1142 -67.2124 62° Northeast 508 585 33,000  Level FlightAware ADS-B
Fri 07:48:48 PM 42.1800 -67.0440 62° Northeast 510 587 33,000  Level FlightAware ADS-B
Fri 07:48:51 PM 42.1904 -67.0134 65° Northeast 512 589 33,000  Level FlightAware ADS-B
Fri 07:49:30 PM 42.2140 -66.9490 64° Northeast 510 587 33,000  Level FlightAware ADS-B
Fri 07:49:33 PM 42.2235 -66.8891 78° East 517 595 33,000 625 Level FlightAware ADS-B
Fri 07:50:18 PM 42.2510 -66.7730 72° East 510 587 33,500 941 Climbing FlightAware ADS-B
Fri 07:50:24 PM 42.2650 -66.7341 64° Northeast 507 583 33,800 1,250 Climbing FlightAware ADS-B
Fri 07:50:42 PM 42.2889 -66.6908 53° Northeast 492 566 34,000 214 Climbing FlightAware ADS-B
Fri 07:51:20 PM 42.3390 -66.6166 48° Northeast 501 577 34,000  Level FlightAware ADS-B
Fri 07:51:52 PM 42.3864 -66.5185 57° Northeast 502 578 34,000  Level FlightAware ADS-B
Fri 07:52:24 PM 42.4226 -66.4430 57° Northeast 503 579 34,000  Level FlightAware ADS-B
Fri 07:52:55 PM 42.4571 -66.3711 57° Northeast 503 579 34,000  Level FlightAware ADS-B
Fri 07:53:31 PM 42.5067 -66.2675 57° Northeast 505 581 34,000  Level FlightAware ADS-B
Fri 07:54:01 PM 42.5444 -66.1726 62° Northeast 510 587 34,000  Level FlightAware ADS-B
Fri 07:54:33 PM 42.5737 -66.0802 67° East 517 595 34,000  Level FlightAware ADS-B
Fri 07:55:06 PM 42.5989 -65.9821 71° East 521 600 34,000  Level FlightAware ADS-B
Fri 07:55:36 PM 42.6211 -65.8858 73° East 523 602 34,000  Level FlightAware ADS-B
Fri 07:56:06 PM 42.6422 -65.7903 73° East 524 603 34,000  Level FlightAware ADS-B
Fri 07:56:36 PM 42.6623 -65.6986 73° East 527 606 34,000  Level FlightAware ADS-B
Fri 07:57:06 PM 42.6837 -65.6001 74° East 528 608 34,000  Level FlightAware ADS-B
Fri 07:57:36 PM 42.7008 -65.5209 74° East 528 608 34,000  Level FlightAware ADS-B
Fri 07:58:08 PM 42.7200 -65.4290 74° East 529 609 34,000  Level FlightAware ADS-B
Fri 07:58:18 PM 42.7324 -65.3726 73° East 529 609 34,000  Level FlightAware ADS-B
Fri 07:58:48 PM 42.7536 -65.2725 74° East 530 610 34,000  Level FlightAware ADS-B
Fri 07:59:18 PM 42.7733 -65.1798 74° East 530 610 34,000  Level FlightAware ADS-B
Fri 07:59:48 PM 42.7934 -65.0840 74° East 531 611 34,000  Level FlightAware ADS-B
Fri 08:00:20 PM 42.8147 -64.9825 74° East 533 613 34,000  Level FlightAware ADS-B
Fri 08:00:51 PM 42.8363 -64.8783 74° East 535 616 34,000  Level FlightAware ADS-B
Fri 08:01:21 PM 42.8554 -64.7865 74° East 535 616 34,000  Level FlightAware ADS-B
Fri 08:01:53 PM 42.8730 -64.7020 74° East 536 617 34,000  Level FlightAware ADS-B
Fri 08:01:56 PM 42.8793 -64.6708 75° East 536 617 34,000  Level FlightAware ADS-B
Fri 08:02:26 PM 42.9000 -64.5702 74° East 537 618 34,000  Level FlightAware ADS-B
Fri 08:03:03 PM 42.9190 -64.4770 74° East 537 618 34,000  Level FlightAware ADS-B
Fri 08:03:38 PM 42.9400 -64.3590 76° East 539 620 34,000  Level FlightAware ADS-B
Fri 08:03:48 PM 42.9489 -64.3095 76° East 539 620 34,000  Level FlightAware ADS-B
Fri 08:04:28 PM 42.9728 -64.1722 77° East 542 624 34,000  Level FlightAware ADS-B
Fri 08:04:58 PM 42.9906 -64.0709 77° East 543 625 34,000  Level FlightAware ADS-B
Fri 08:05:50 PM 43.0203 -63.9010 76° East 544 626 34,000  Level FlightAware ADS-B
Fri 08:06:22 PM 43.0347 -63.8193 76° East 545 627 34,000  Level FlightAware ADS-B
Fri 08:06:59 PM 43.0613 -63.6656 77° East 547 629 34,000  Level FlightAware ADS-B
Fri 08:07:43 PM 43.0820 -63.5490 76° East 546 628 34,000  Level FlightAware ADS-B
Fri 08:08:01 PM 43.0943 -63.4743 77° East 547 629 34,000  Level FlightAware ADS-B
Fri 08:08:55 PM 43.1210 -63.3140 77° East 547 629 34,000  Level FlightAware ADS-B
Fri 08:09:28 PM 43.1420 -63.1950 76° East 548 631 34,000  Level FlightAware ADS-B
Fri 08:10:03 PM 43.1620 -63.0760 77° East 550 633 34,000  Level FlightAware ADS-B
Fri 08:10:38 PM 43.1800 -62.9640 78° East 552 635 34,000  Level FlightAware ADS-B
Fri 08:11:19 PM 43.1970 -62.8630 77° East 552 635 34,000  Level FlightAware ADS-B
Fri 08:11:58 PM 43.2250 -62.6940 77° East 553 636 34,000  Level FlightAware ADS-B
Fri 08:12:33 PM 43.2450 -62.5660 78° East 554 638 34,000  Level FlightAware ADS-B
Fri 08:13:10 PM 43.2650 -62.4420 77° East 557 641 34,000  Level FlightAware ADS-B
Fri 08:13:48 PM 43.2860 -62.3110 78° East 558 642 34,000  Level FlightAware ADS-B
Fri 08:14:23 PM 43.3060 -62.1850 78° East 558 642 34,000  Level FlightAware ADS-B
Fri 08:14:58 PM 43.3250 -62.0670 77° East 558 642 34,000  Level FlightAware ADS-B
Fri 08:15:39 PM 43.3480 -61.9190 78° East 558 642 34,000  Level FlightAware ADS-B
Fri 08:16:13 PM 43.3660 -61.8020 78° East 558 642 34,000  Level FlightAware ADS-B
Fri 08:16:48 PM 43.3830 -61.6920 78° East 558 642 34,000  Level FlightAware ADS-B
Fri 08:17:23 PM 43.4030 -61.5640 78° East 558 642 34,000  Level FlightAware ADS-B
Fri 08:17:58 PM 43.4210 -61.4400 79° East 558 642 34,000  Level FlightAware ADS-B
Fri 08:18:33 PM 43.4380 -61.3280 78° East 559 643 34,000  Level FlightAware ADS-B
Fri 08:19:18 PM 43.4640 -61.1600 78° East 561 646 34,000  Level FlightAware ADS-B
Fri 08:19:48 PM 43.4790 -61.0560 79° East 560 644 34,000  Level FlightAware ADS-B
Fri 08:20:38 PM 43.5030 -60.8890 79° East 560 644 34,000  Level FlightAware ADS-B
Fri 08:21:13 PM 43.5200 -60.7710 79° East 559 643 34,000  Level FlightAware ADS-B
Fri 08:22:00 PM 43.5400 -60.6330 79° East 559 643 34,000  Level FlightAware ADS-B
Fri 08:22:36 PM 43.5550 -60.5260 79° East 559 643 34,000  Level FlightAware ADS-B
Fri 08:23:12 PM 43.5700 -60.4190 79° East 559 643 34,000  Level FlightAware ADS-B
Fri 08:23:48 PM 43.5850 -60.3120 79° East 559 643 34,000  Level FlightAware ADS-B
Fri 08:24:24 PM 43.6000 -60.2050 79° East 559 643 34,000  Level FlightAware ADS-B
Fri 08:25:01 PM 43.6160 -60.0940 79° East 559 643 34,000  Level FlightAware ADS-B
Fri 08:25:37 PM 43.6310 -59.9870 79° East 559 643 34,000  Level FlightAware ADS-B
Fri 08:26:14 PM 43.6460 -59.8770 79° East 559 643 34,000  Level FlightAware ADS-B
Fri 08:26:50 PM 43.6610 -59.7690 79° East 559 643 34,000  Level FlightAware ADS-B
Fri 08:27:26 PM 43.6770 -59.6620 78° East 559 643 34,000  Level FlightAware ADS-B
Fri 08:28:02 PM 43.6920 -59.5540 79° East 559 643 34,000  Level FlightAware ADS-B
Fri 08:28:38 PM 43.7070 -59.4470 79° East 559 643 34,000  Level FlightAware ADS-B
Fri 08:29:15 PM 43.7220 -59.3360 79° East 559 643 34,000  Level FlightAware ADS-B
Fri 08:29:49 PM 43.7660 -58.9680 80° East 547 629 34,000  Level FlightAware ADS-B
Fri 08:30:22 PM 43.7810 -58.8540 80° East 549 632 34,000  Level FlightAware ADS-B
Fri 08:30:57 PM 43.7960 -58.7340 80° East 549 632 34,000  Level FlightAware ADS-B
Fri 08:31:31 PM 43.8090 -58.6300 80° East 549 632 34,000  Level FlightAware ADS-B
Fri 08:32:07 PM 43.8230 -58.5240 80° East 549 632 34,000  Level FlightAware ADS-B
Fri 08:32:43 PM 43.8360 -58.4180 80° East 549 632 34,000  Level FlightAware ADS-B
Fri 08:33:19 PM 43.8500 -58.3120 80° East 549 632 34,000  Level FlightAware ADS-B
Fri 08:33:52 PM 43.8700 -58.1340 81° East 544 626 34,000  Level FlightAware ADS-B
Fri 08:34:32 PM 43.8850 -58.0170 80° East 544 626 34,000  Level FlightAware ADS-B
Fri 08:35:08 PM 43.8980 -57.9120 80° East 544 626 34,000  Level FlightAware ADS-B
Fri 08:35:41 PM 43.9150 -57.7520 82° East 552 635 34,000  Level FlightAware ADS-B
Fri 08:36:19 PM 43.9300 -57.6220 81° East 555 639 34,000  Level FlightAware ADS-B
Fri 08:37:11 PM 43.9500 -57.4430 81° East 553 636 34,000  Level FlightAware ADS-B
Fri 08:37:51 PM 43.9670 -57.2970 81° East 551 634 34,000  Level FlightAware ADS-B
Fri 08:38:25 PM 43.9800 -57.1810 81° East 550 633 34,000  Level FlightAware ADS-B
Fri 08:39:21 PM 44.0000 -57.0030 81° East 549 632 34,000  Level FlightAware ADS-B
Fri 08:39:57 PM 44.0120 -56.8960 81° East 549 632 34,000  Level FlightAware ADS-B
Fri 08:40:33 PM 44.0240 -56.7890 81° East 549 632 34,000  Level FlightAware ADS-B
Fri 08:41:09 PM 44.0360 -56.6830 81° East 549 632 34,000  Level FlightAware ADS-B
Fri 08:41:46 PM 44.0490 -56.5730 81° East 549 632 34,000  Level FlightAware ADS-B
Fri 08:42:22 PM 44.0610 -56.4660 81° East 549 632 34,000  Level FlightAware ADS-B
Fri 08:42:58 PM 44.0730 -56.3590 81° East 549 632 34,000  Level FlightAware ADS-B
Fri 08:43:34 PM 44.0850 -56.2520 81° East 549 632 34,000  Level FlightAware ADS-B
Fri 08:44:10 PM 44.0970 -56.1450 81° East 549 632 34,000  Level FlightAware ADS-B
Fri 08:44:46 PM 44.1100 -56.0390 80° East 549 632 34,000  Level FlightAware ADS-B
Fri 08:45:22 PM 44.1220 -55.9320 81° East 549 632 34,000  Level FlightAware ADS-B
Fri 08:45:58 PM 44.1340 -55.8250 81° East 549 632 34,000  Level FlightAware ADS-B
Fri 08:46:34 PM 44.1460 -55.7180 81° East 549 632 34,000  Level FlightAware ADS-B
Fri 08:47:10 PM 44.1580 -55.6110 81° East 549 632 34,000  Level FlightAware ADS-B
Fri 08:47:46 PM 44.1700 -55.5040 81° East 549 632 34,000  Level FlightAware ADS-B
Fri 08:48:23 PM 44.1830 -55.3940 81° East 549 632 34,000  Level FlightAware ADS-B
Fri 08:49:26 PM 44.1500 -54.8667 81° East 520 598 34,000  Level Gander Center
Fri 08:50:26 PM 44.1500 -54.6667 90° East 530 610 34,000  Level Gander Center
Fri 08:50:58 PM 44.1500 -54.5500 90° East 540 621 34,000  Level Gander Center
Fri 08:51:49 PM 44.1500 -54.3667 90° East 530 610 34,000  Level Moncton Center
Fri 08:53:26 PM 44.1500 -54.0333 90° East 540 621 34,000  Level Gander Center
Fri 08:53:58 PM 44.1500 -53.9167 90° East 540 621 34,000  Level Gander Center
Fri 08:54:58 PM 44.1667 -53.7000 84° East 540 621 34,000  Level Gander Center
Fri 08:55:58 PM 44.1667 -53.5000 90° East 540 621 34,000  Level Gander Center
Fri 08:56:49 PM 44.1500 -53.3333 98° East 540 621 34,000  Level Moncton Center
Fri 08:57:49 PM 44.1667 -53.1167 84° East 540 621 34,000  Level Moncton Center
Fri 08:58:49 PM 44.1500 -52.9167 97° East 560 644 34,000  Level Moncton Center
Fri 08:59:49 PM 44.1500 -52.7000 90° East 540 621 34,000  Level Moncton Center
Fri 09:00:49 PM 44.1500 -52.5000 90° East 540 621 34,000  Level Moncton Center
Fri 09:01:49 PM 44.1333 -52.2833 96° East 540 621 34,000  Level Moncton Center
Fri 09:01:58 PM 44.1500 -52.2500 86° East 540 621 34,000  Level Gander Center
Fri 09:02:08 PM 44.1500 -52.7500 86° East 543 625 34,000  Level New York Oceanic (ODAPS)
Fri 09:02:58 PM 44.1333 -52.0167 96° East 550 633 34,000  Level Gander Center
Fri 09:03:48 PM 44.1667 -52.4333 95° East 551 634 34,000  Level New York Oceanic (ODAPS)
Fri 09:04:49 PM 44.1000 -51.6333 95° East 560 644 34,000  Level Moncton Center
Fri 09:05:49 PM 44.0833 -51.4333 97° East 560 644 34,000  Level Moncton Center
Fri 09:06:58 PM 44.0667 -51.1833 95° East 560 644 34,000  Level Gander Center
Fri 09:07:58 PM 44.0667 -50.9500 90° East 560 644 34,000  Level Gander Center
Fri 09:08:58 PM 44.0500 -50.7500 97° East 570 656 34,000  Level Gander Center
Fri 09:09:58 PM 44.0167 -50.5167 101° East 560 644 34,000  Level Gander Center
Fri 09:12:00 PM 44.0072 -50.2134 92° East  Level FlightAware Approximate
Fri 09:13:09 PM 44.0000 -50.0000 71° East 568 654 34,000  Level New York Oceanic (ODAPS)
Fri 09:14:12 PM 44.0500 -49.7833 71° East 567 652 34,000  Level New York Oceanic (ODAPS)
Fri 09:19:00 PM 44.3095 -48.7367 72° East 568 654 34,000  Level FlightAware Transoceanic
Fri 09:20:00 PM 44.3575 -48.5188 72° East 567 652 34,000  Level FlightAware Transoceanic
Fri 09:21:00 PM 44.4074 -48.3068 72° East 567 652 34,000  Level FlightAware Transoceanic
Fri 09:22:00 PM 44.4569 -48.0944 72° East 567 652 34,000  Level FlightAware Transoceanic
Fri 09:23:00 PM 44.5060 -47.8816 72° East 567 652 34,000  Level FlightAware Transoceanic
Fri 09:24:00 PM 44.5546 -47.6685 72° East 567 652 34,000  Level FlightAware Transoceanic
Fri 09:25:00 PM 44.6030 -47.4550 72° East 567 652 34,000  Level FlightAware Transoceanic
Fri 09:26:00 PM 44.6509 -47.2412 73° East 567 652 34,000  Level FlightAware Transoceanic
Fri 09:27:00 PM 44.6984 -47.0270 73° East 567 652 34,000  Level FlightAware Transoceanic
Fri 09:28:00 PM 44.7455 -46.8125 73° East 567 652 34,000  Level FlightAware Transoceanic
Fri 09:29:00 PM 44.7922 -46.5976 73° East 567 652 34,000  Level FlightAware Transoceanic
Fri 09:30:00 PM 44.8385 -46.3824 73° East 567 652 34,000  Level FlightAware Transoceanic
Fri 09:31:00 PM 44.8844 -46.1669 73° East 567 652 34,000  Level FlightAware Transoceanic
Fri 09:32:00 PM 44.9299 -45.9510 74° East 567 652 34,000  Level FlightAware Transoceanic
Fri 09:33:00 PM 44.9749 -45.7347 74° East 567 652 34,000  Level FlightAware Transoceanic
Fri 09:34:00 PM 45.0196 -45.5181 74° East 567 652 34,000  Level FlightAware Transoceanic
Fri 09:35:00 PM 45.0639 -45.3012 74° East 567 652 34,000  Level FlightAware Transoceanic
Fri 09:36:00 PM 45.1077 -45.0839 74° East 567 652 34,000  Level FlightAware Transoceanic
Fri 09:37:00 PM 45.1512 -44.8664 74° East 567 652 34,000  Level FlightAware Transoceanic
Fri 09:38:00 PM 45.1942 -44.6484 74° East 567 652 34,000  Level FlightAware Transoceanic
Fri 09:39:00 PM 45.2368 -44.4302 75° East 567 652 34,000  Level FlightAware Transoceanic
Fri 09:40:00 PM 45.2790 -44.2116 75° East 567 652 34,000  Level FlightAware Transoceanic
Fri 09:41:00 PM 45.3208 -43.9927 75° East 567 652 34,000  Level FlightAware Transoceanic
Fri 09:42:00 PM 45.3621 -43.7735 75° East 567 652 34,000  Level FlightAware Transoceanic
Fri 09:43:00 PM 45.4031 -43.5540 75° East 567 652 34,000  Level FlightAware Transoceanic
Fri 09:44:00 PM 45.4436 -43.3341 75° East 567 652 34,000  Level FlightAware Transoceanic
Fri 09:45:00 PM 45.4837 -43.1139 76° East 567 652 34,000  Level FlightAware Transoceanic
Fri 09:46:00 PM 45.5233 -42.8935 76° East 567 652 34,000  Level FlightAware Transoceanic
Fri 09:47:00 PM 45.5626 -42.6727 76° East 567 652 34,000  Level FlightAware Transoceanic
Fri 09:48:00 PM 45.6014 -42.4516 76° East 567 652 34,000  Level FlightAware Transoceanic
Fri 09:49:00 PM 45.6398 -42.2302 76° East 567 652 34,000  Level FlightAware Transoceanic
Fri 09:50:00 PM 45.6778 -42.0085 76° East 567 652 34,000  Level FlightAware Transoceanic
Fri 09:51:00 PM 45.7153 -41.7865 76° East 567 652 34,000  Level FlightAware Transoceanic
Fri 09:52:00 PM 45.7524 -41.5642 77° East 567 652 34,000  Level FlightAware Transoceanic
Fri 09:53:00 PM 45.7891 -41.3416 77° East 567 652 34,000  Level FlightAware Transoceanic
Fri 09:54:00 PM 45.8253 -41.1187 77° East 567 652 34,000  Level FlightAware Transoceanic
Fri 09:55:00 PM 45.8611 -40.8955 77° East 567 652 34,000  Level FlightAware Transoceanic
Fri 09:56:00 PM 45.8965 -40.6721 77° East 567 652 34,000  Level FlightAware Transoceanic
Fri 09:57:00 PM 45.9314 -40.4483 77° East 567 652 34,000  Level FlightAware Transoceanic
Fri 09:58:00 PM 45.9659 -40.2243 78° East 567 652 34,000  Level FlightAware Transoceanic
Fri 09:59:00 PM 46.0000 -40.0000 62° Northeast 567 652 34,000  Level FlightAware Transoceanic
Fri 10:00:00 PM 46.0741 -39.7949 63° Northeast 567 652 34,000  Level FlightAware Transoceanic
Fri 10:01:00 PM 46.1479 -39.5892 63° Northeast 567 652 34,000  Level FlightAware Transoceanic
Fri 10:02:00 PM 46.2213 -39.3830 63° Northeast 567 652 34,000  Level FlightAware Transoceanic
Fri 10:03:00 PM 46.2943 -39.1763 63° Northeast 567 652 34,000  Level FlightAware Transoceanic
Fri 10:04:00 PM 46.3670 -38.9689 63° Northeast 567 652 34,000  Level FlightAware Transoceanic
Fri 10:05:00 PM 46.4393 -38.7611 63° Northeast 567 652 34,000  Level FlightAware Transoceanic
Fri 10:06:00 PM 46.5112 -38.5527 63° Northeast 567 652 34,000  Level FlightAware Transoceanic
Fri 10:07:00 PM 46.5827 -38.3437 64° Northeast 567 652 34,000  Level FlightAware Transoceanic
Fri 10:08:00 PM 46.6539 -38.1342 64° Northeast 567 652 34,000  Level FlightAware Transoceanic
Fri 10:09:00 PM 46.7246 -37.9241 64° Northeast 567 652 34,000  Level FlightAware Transoceanic
Fri 10:10:00 PM 46.7950 -37.7135 64° Northeast 567 652 34,000  Level FlightAware Transoceanic
Fri 10:11:00 PM 46.8650 -37.5023 64° Northeast 567 652 34,000  Level FlightAware Transoceanic
Fri 10:12:00 PM 46.9346 -37.2906 64° Northeast 567 652 34,000  Level FlightAware Transoceanic
Fri 10:13:00 PM 47.0038 -37.0783 65° Northeast 567 652 34,000  Level FlightAware Transoceanic
Fri 10:14:00 PM 47.0726 -36.8655 65° Northeast 567 652 34,000  Level FlightAware Transoceanic
Fri 10:15:00 PM 47.1410 -36.6521 65° Northeast 567 652 34,000  Level FlightAware Transoceanic
Fri 10:16:00 PM 47.2090 -36.4382 65° Northeast 567 652 34,000  Level FlightAware Transoceanic
Fri 10:17:00 PM 47.2766 -36.2238 65° Northeast 567 652 34,000  Level FlightAware Transoceanic
Fri 10:18:00 PM 47.3439 -36.0088 65° Northeast 567 652 34,000  Level FlightAware Transoceanic
Fri 10:19:00 PM 47.4107 -35.7932 65° Northeast 567 652 34,000  Level FlightAware Transoceanic
Fri 10:20:00 PM 47.4771 -35.5771 66° East 567 652 34,000  Level FlightAware Transoceanic
Fri 10:21:00 PM 47.5431 -35.3604 66° East 567 652 34,000  Level FlightAware Transoceanic
Fri 10:22:00 PM 47.6087 -35.1432 66° East 567 652 34,000  Level FlightAware Transoceanic
Fri 10:23:00 PM 47.6739 -34.9255 66° East 567 652 34,000  Level FlightAware Transoceanic
Fri 10:24:00 PM 47.7387 -34.7072 66° East 567 652 34,000  Level FlightAware Transoceanic
Fri 10:25:00 PM 47.8030 -34.4884 66° East 567 652 34,000  Level FlightAware Transoceanic
Fri 10:26:00 PM 47.8670 -34.2691 67° East 567 652 34,000  Level FlightAware Transoceanic
Fri 10:27:00 PM 47.9305 -34.0491 67° East 567 652 34,000  Level FlightAware Transoceanic
Fri 10:28:00 PM 47.9936 -33.8287 67° East 567 652 34,000  Level FlightAware Transoceanic
Fri 10:29:00 PM 48.0563 -33.6077 67° East 567 652 34,000  Level FlightAware Transoceanic
Fri 10:30:00 PM 48.1185 -33.3862 67° East 567 652 34,000  Level FlightAware Transoceanic
Fri 10:31:00 PM 48.1803 -33.1642 67° East 567 652 34,000  Level FlightAware Transoceanic
Fri 10:32:00 PM 48.2417 -32.9416 68° East 567 652 34,000  Level FlightAware Transoceanic
Fri 10:33:00 PM 48.3027 -32.7185 68° East 567 652 34,000  Level FlightAware Transoceanic
Fri 10:34:00 PM 48.3632 -32.4948 68° East 567 652 34,000  Level FlightAware Transoceanic
Fri 10:35:00 PM 48.4233 -32.2706 68° East 567 652 34,000  Level FlightAware Transoceanic
Fri 10:36:00 PM 48.4830 -32.0459 68° East 567 652 34,000  Level FlightAware Transoceanic
Fri 10:37:00 PM 48.5422 -31.8207 68° East 567 652 34,000  Level FlightAware Transoceanic
Fri 10:38:00 PM 48.6010 -31.5949 69° East 567 652 34,000  Level FlightAware Transoceanic
Fri 10:39:00 PM 48.6593 -31.3686 69° East 567 652 34,000  Level FlightAware Transoceanic
Fri 10:40:00 PM 48.7172 -31.1418 69° East 567 652 34,000  Level FlightAware Transoceanic
Fri 10:41:00 PM 48.7747 -30.9145 69° East 567 652 34,000  Level FlightAware Transoceanic
Fri 10:42:00 PM 48.8317 -30.6866 69° East 567 652 34,000  Level FlightAware Transoceanic
Fri 10:43:00 PM 48.8882 -30.4583 69° East 567 652 34,000  Level FlightAware Transoceanic
Fri 10:44:00 PM 48.9444 -30.2294 70° East 567 652 34,000  Level FlightAware Transoceanic
Fri 10:45:00 PM 48.9890 -30.0306 71° East  Level Estimated
Fri 10:46:00 PM 49.0336 -29.8298 71° East  Level Estimated
Fri 10:47:00 PM 49.0779 -29.6286 71° East  Level Estimated
Fri 10:48:00 PM 49.1218 -29.4271 72° East  Level Estimated
Fri 10:49:00 PM 49.1654 -29.2252 72° East  Level Estimated
Fri 10:50:00 PM 49.2087 -29.0230 72° East  Level Estimated
Fri 10:51:00 PM 49.2516 -28.8204 72° East  Level Estimated
Fri 10:52:00 PM 49.2941 -28.6175 72° East  Level Estimated
Fri 10:53:00 PM 49.3363 -28.4142 72° East  Level Estimated
Fri 10:54:00 PM 49.3781 -28.2106 72° East  Level Estimated
Fri 10:55:00 PM 49.4196 -28.0066 73° East  Level Estimated
Fri 10:56:00 PM 49.4607 -27.8023 73° East  Level Estimated
Fri 10:57:00 PM 49.5014 -27.5976 73° East  Level Estimated
Fri 10:58:00 PM 49.5418 -27.3926 73° East  Level Estimated
Fri 10:59:00 PM 49.5818 -27.1873 73° East  Level Estimated
Fri 11:00:00 PM 49.6214 -26.9816 73° East  Level Estimated
Fri 11:01:00 PM 49.6607 -26.7756 74° East  Level Estimated
Fri 11:02:00 PM 49.6996 -26.5693 74° East  Level Estimated
Fri 11:03:00 PM 49.7382 -26.3626 74° East  Level Estimated
Fri 11:04:00 PM 49.7764 -26.1556 74° East  Level Estimated
Fri 11:05:00 PM 49.8142 -25.9483 74° East  Level Estimated
Fri 11:06:00 PM 49.8517 -25.7407 74° East  Level Estimated
Fri 11:07:00 PM 49.8887 -25.5327 74° East  Level Estimated
Fri 11:08:00 PM 49.9254 -25.3244 75° East  Level Estimated
Fri 11:09:00 PM 49.9618 -25.1158 75° East  Level Estimated
Fri 11:10:00 PM 49.9977 -24.9069 75° East  Level Estimated
Fri 11:11:00 PM 50.0333 -24.6977 75° East  Level Estimated
Fri 11:12:00 PM 50.0685 -24.4882 75° East  Level Estimated
Fri 11:13:00 PM 50.1033 -24.2783 75° East  Level Estimated
Fri 11:14:00 PM 50.1377 -24.0682 76° East  Level Estimated
Fri 11:15:00 PM 50.1718 -23.8577 76° East  Level Estimated
Fri 11:16:00 PM 50.2055 -23.6470 76° East  Level Estimated
Fri 11:17:00 PM 50.2388 -23.4360 76° East  Level Estimated
Fri 11:18:00 PM 50.2717 -23.2246 76° East  Level Estimated
Fri 11:19:00 PM 50.3042 -23.0130 76° East  Level Estimated
Fri 11:20:00 PM 50.3364 -22.8011 77° East  Level Estimated
Fri 11:21:00 PM 50.3682 -22.5889 77° East  Level Estimated
Fri 11:22:00 PM 50.3995 -22.3765 77° East  Level Estimated
Fri 11:23:00 PM 50.4305 -22.1637 77° East  Level Estimated
Fri 11:24:00 PM 50.4611 -21.9507 77° East  Level Estimated
Fri 11:25:00 PM 50.4913 -21.7374 77° East  Level Estimated
Fri 11:26:00 PM 50.5212 -21.5238 78° East  Level Estimated
Fri 11:27:00 PM 50.5506 -21.3100 78° East  Level Estimated
Fri 11:28:00 PM 50.5796 -21.0959 78° East  Level Estimated
Fri 11:29:00 PM 50.6082 -20.8821 78° East  Level Estimated
Fri 11:30:00 PM 50.6364 -20.6680 78° East  Level Estimated
Fri 11:31:00 PM 50.6642 -20.4537 78° East  Level Estimated
Fri 11:32:00 PM 50.6916 -20.2392 79° East  Level Estimated
Fri 11:33:00 PM 50.7186 -20.0244 79° East  Level Estimated
Fri 11:34:00 PM 50.7452 -19.8093 79° East  Level Estimated
Fri 11:35:00 PM 50.7714 -19.5940 79° East  Level Estimated
Fri 11:36:00 PM 50.7972 -19.3785 79° East  Level Estimated
Fri 11:37:00 PM 50.8226 -19.1627 79° East  Level Estimated
Fri 11:38:00 PM 50.8476 -18.9467 80° East  Level Estimated
Fri 11:39:00 PM 50.8722 -18.7305 80° East  Level Estimated
Fri 11:40:00 PM 50.8965 -18.5140 80° East  Level Estimated
Fri 11:41:00 PM 50.9203 -18.2973 80° East  Level Estimated
Fri 11:42:00 PM 50.9437 -18.0805 80° East  Level Estimated
Fri 11:43:00 PM 50.9667 -17.8633 80° East  Level Estimated
Fri 11:44:00 PM 50.9893 -17.6460 81° East  Level Estimated
Fri 11:45:00 PM 51.0115 -17.4285 81° East  Level Estimated
Fri 11:46:00 PM 51.0333 -17.2107 81° East  Level Estimated
Fri 11:47:00 PM 51.0547 -16.9928 81° East  Level Estimated
Fri 11:48:00 PM 51.0757 -16.7746 81° East  Level Estimated
Fri 11:49:00 PM 51.0963 -16.5563 81° East  Level Estimated
Fri 11:50:00 PM 51.1165 -16.3377 82° East  Level Estimated
Fri 11:51:00 PM 51.1363 -16.1184 82° East  Level Estimated
Fri 11:52:00 PM 51.1557 -15.8989 82° East  Level Estimated
Fri 11:53:00 PM 51.1747 -15.6792 82° East  Level Estimated
Fri 11:54:00 PM 51.1933 -15.4593 82° East  Level Estimated
Fri 11:55:00 PM 51.2115 -15.2393 82° East  Level Estimated
Fri 11:56:00 PM 51.2292 -15.0191 83° East  Level Estimated
Fri 11:57:00 PM 51.2466 -14.7987 83° East  Level Estimated
Fri 11:58:00 PM 51.2635 -14.5781 83° East  Level Estimated
Fri 11:59:00 PM 51.2800 -14.3574 83° East  Level Estimated
Sat 12:00:00 AM 51.2961 -14.1365 83° East  Level Estimated
Sat 12:01:00 AM 51.3118 -13.9155 83° East  Level Estimated
Sat 12:01:05 AM 51.2880 -12.5920 83° East 503 579 34,000  Level FlightAware ADS-B
Sat 12:01:42 AM 51.3010 -12.4720 80° East 502 578 34,000  Level FlightAware ADS-B
Sat 12:02:18 AM 51.3140 -12.3600 79° East 502 578 34,000  Level FlightAware ADS-B
Sat 12:02:55 AM 51.3260 -12.2450 80° East 502 578 34,000  Level FlightAware ADS-B
Sat 12:03:32 AM 51.3390 -12.1290 80° East 502 578 34,000  Level FlightAware ADS-B
Sat 12:04:09 AM 51.3520 -12.0140 80° East 502 578 34,000 682 Level FlightAware ADS-B
Sat 12:06:00 AM 51.3760 -11.6037 84° East  Level Estimated
Sat 12:07:00 AM 51.3884 -11.3818 85° East  Level Estimated
Sat 12:07:21 AM 51.4280 -11.2310 85° East 37,000  Level FlightAware ADS-B
Sat 12:07:56 AM 51.4390 -11.1130 81° East 493 567 37,000  Level FlightAware ADS-B
Sat 12:08:46 AM 51.4570 -10.9300 81° East 493 567 37,000  Level FlightAware ADS-B
Sat 12:09:31 AM 51.4710 -10.7720 82° East 493 567 37,000  Level FlightAware ADS-B
Sat 12:10:05 AM 51.4840 -10.6340 81° East 492 566 37,000  Level FlightAware ADS-B
Sat 12:10:35 AM 51.4940 -10.5230 82° East 492 566 37,000  Level FlightAware ADS-B
Sat 12:11:21 AM 51.5080 -10.3800 81° East 491 565 37,000  Level FlightAware ADS-B
Sat 12:11:56 AM 51.5190 -10.2460 82° East 491 565 37,000  Level FlightAware ADS-B
Sat 12:12:37 AM 51.5320 -10.0960 82° East 490 564 37,000  Level FlightAware ADS-B
Sat 12:12:55 AM 51.4976 -10.4836 262° West 490 564 37,000  Level FlightAware ADS-B
Sat 12:13:31 AM 51.5481 -9.9047 82° East 491 565 37,000  Level FlightAware ADS-B
Sat 12:14:23 AM 51.5630 -9.7230 82° East 487 560 37,000  Level FlightAware ADS-B
Sat 12:14:30 AM 51.5564 -9.8066 263° West 487 560 37,000  Level FlightAware ADS-B
Sat 12:15:12 AM 51.5794 -9.5284 82° East 489 563 37,000  Level FlightAware ADS-B
Sat 12:15:43 AM 51.5882 -9.4188 83° East 489 563 37,000  Level FlightAware ADS-B
Sat 12:16:15 AM 51.5958 -9.3243 83° East 489 563 37,000  Level FlightAware ADS-B
Sat 12:16:45 AM 51.6035 -9.2266 83° East 488 562 37,000  Level FlightAware ADS-B
Sat 12:17:19 AM 51.6147 -9.0835 83° East 487 560 37,000  Level FlightAware ADS-B
Sat 12:17:58 AM 51.6250 -8.9430 83° East 487 560 37,000  Level FlightAware ADS-B
Sat 12:18:16 AM 51.6310 -8.8695 82° East 486 559 37,000  Level FlightAware ADS-B
Sat 12:19:08 AM 51.6440 -8.6910 82° East 482 555 37,000  Level FlightAware ADS-B
Sat 12:19:14 AM 51.6463 -8.6602 82° East 474 545 37,000  Level FlightAware UK
Sat 12:19:44 AM 51.6542 -8.5539 82° East 472 543 37,000  Level FlightAware UK
Sat 12:19:44 AM 51.6540 -8.5660 82° East 481 554 37,000 -200 Level FlightAware ADS-B
Sat 12:20:14 AM 51.6619 -8.4477 82° East 472 543 36,900  Descending FlightAware UK
Sat 12:20:19 AM 51.6620 -8.4430 82° East 482 555 37,000 146 Climbing FlightAware ADS-B
Sat 12:20:55 AM 51.6724 -8.3044 83° East 481 554 37,000  Level FlightAware ADS-B
Sat 12:21:26 AM 51.6801 -8.1944 83° East 481 554 37,000  Level FlightAware ADS-B
Sat 12:22:03 AM 51.6884 -8.0746 84° East 483 556 37,000  Level FlightAware ADS-B
Sat 12:22:35 AM 51.6948 -7.9812 84° East 483 556 37,000  Level FlightAware ADS-B
Sat 12:23:10 AM 51.7048 -7.8321 84° East 484 557 37,000  Level FlightAware ADS-B
Sat 12:23:42 AM 51.7096 -7.7599 84° East 482 555 37,000  Level FlightAware ADS-B
Sat 12:24:15 AM 51.7208 -7.5925 84° East 464 534 37,000  Level FlightAware UK
Sat 12:24:28 AM 51.7230 -7.5570 84° East 475 547 37,000  Level FlightAware ADS-B
Sat 12:25:02 AM 51.7305 -7.4343 84° East 470 541 37,000  Level FlightAware ADS-B
Sat 12:25:37 AM 51.7379 -7.3156 84° East 461 531 37,000  Level FlightAware ADS-B
Sat 12:26:09 AM 51.7451 -7.1996 84° East 460 529 37,000  Level FlightAware ADS-B
Sat 12:26:39 AM 51.7514 -7.0966 84° East 458 527 37,000 -91 Level FlightAware ADS-B
Sat 12:27:15 AM 51.7586 -6.9734 84° East 450 518 36,900  Descending FlightAware UK
Sat 12:27:28 AM 51.7610 -6.9380 84° East 458 527 37,000 194 Climbing FlightAware ADS-B
Sat 12:27:46 AM 51.7650 -6.8684 85° East 457 526 37,000  Level FlightAware ADS-B (EGCW)
Sat 12:28:24 AM 51.7699 -6.7812 85° East 456 525 37,000  Level FlightAware ADS-B (EIDW / DUB)
Sat 12:28:49 AM 51.7771 -6.6547 85° East 454 522 37,000  Level FlightAware ADS-B
Sat 12:29:20 AM 51.7803 -6.5518 87° East 457 526 37,000  Level FlightAware ADS-B
Sat 12:29:52 AM 51.7777 -6.4421 92° East 461 531 37,000  Level FlightAware ADS-B
Sat 12:30:22 AM 51.7737 -6.3413 94° East 463 533 37,000  Level FlightAware ADS-B
Sat 12:30:53 AM 51.7692 -6.2345 94° East 463 533 37,000  Level FlightAware ADS-B
Sat 12:31:23 AM 51.7650 -6.1324 94° East 461 531 37,000  Level FlightAware ADS-B
Sat 12:31:26 AM 51.7645 -6.1204 93° East 459 528 37,000  Level FlightAware ADS-B
Sat 12:31:56 AM 51.7614 -6.0207 93° East 457 526 37,000  Level FlightAware ADS-B (EGCW)
Sat 12:32:02 AM 51.7607 -5.9970 93° East 456 525 37,000  Level FlightAware ADS-B (EGDX / DGX)
Sat 12:32:36 AM 51.7571 -5.8871 93° East 455 524 37,000  Level FlightAware ADS-B (EGCW)
Sat 12:32:54 AM 51.7549 -5.8213 93° East 453 521 37,000  Level FlightAware ADS-B (EGDX / DGX)
Sat 12:33:25 AM 51.7549 -5.8213 93° East 452 520 37,000  Level FlightAware ADS-B (EGDX / DGX)
Sat 12:33:43 AM 51.7492 -5.6565 93° East 451 519 37,000  Level FlightAware ADS-B
Sat 12:33:54 AM 51.7478 -5.6192 93° East 451 519 37,000  Level FlightAware ADS-B
Sat 12:34:17 AM 51.7477 -5.6162 94° East 452 520 37,000  Level FlightAware ADS-B (CYOW)
Sat 12:34:47 AM 51.7411 -5.4405 93° East 451 519 37,000  Level FlightAware ADS-B
Sat 12:35:05 AM 51.7388 -5.3820 94° East 450 518 37,000  Level FlightAware ADS-B (LSPL)
Sat 12:35:13 AM 51.7378 -5.3548 94° East 450 518 37,000  Level FlightAware ADS-B (LSPL)
Sat 12:35:20 AM 51.7369 -5.3344 94° East 451 519 37,000  Level FlightAware ADS-B (LSPL)
Sat 12:35:36 AM 51.7347 -5.2769 94° East 450 518 37,000  Level FlightAware ADS-B
Sat 12:35:49 AM 51.7330 -5.2365 94° East 450 518 37,000 -480 Level FlightAware ADS-B (LSPL)
Sat 12:36:01 AM 51.7313 -5.1938 94° East 450 518 36,800 -1,200 Descending FlightAware ADS-B (LSPL)
Sat 12:36:29 AM 51.7281 -5.1150 94° East 451 519 36,200 -1,680 Descending FlightAware ADS-B (EGDX / DGX)
Sat 12:36:51 AM 51.7281 -5.1150 94° East 451 519 35,400 -1,263 Descending FlightAware ADS-B (EGDX / DGX)
Sat 12:37:26 AM 51.7197 -4.9102 94° East 466 536 35,000 -636 Descending FlightAware ADS-B
Sat 12:37:57 AM 51.7112 -4.7998 97° East 465 535 34,700 -698 Descending FlightAware ADS-B (CYOW)
Sat 12:38:09 AM 51.7071 -4.7592 99° East 464 534 34,500 -1,091 Descending FlightAware ADS-B
Sat 12:38:19 AM 51.7038 -4.7245 99° East 462 532 34,300 -1,304 Descending FlightAware ADS-B
Sat 12:38:32 AM 51.6997 -4.6820 99° East 464 534 34,000 -1,200 Descending FlightAware ADS-B (CYOW)
Sat 12:38:49 AM 51.6939 -4.6225 99° East 461 531 33,700 -1,154 Descending FlightAware ADS-B
Sat 12:38:58 AM 51.6911 -4.5930 99° East 461 531 33,500 -1,263 Descending FlightAware ADS-B (LSPL)
Sat 12:39:08 AM 51.6876 -4.5567 99° East 461 531 33,300 -947 Descending FlightAware ADS-B (LSPL)
Sat 12:39:17 AM 51.6846 -4.5258 99° East 461 531 33,200 -947 Descending FlightAware ADS-B (LSPL)
Sat 12:39:27 AM 51.6813 -4.4916 99° East 461 531 33,000 -364 Descending FlightAware ADS-B (LSPL)
Sat 12:39:50 AM 51.6738 -4.4158 99° East 460 529 33,000  Level FlightAware ADS-B
Sat 12:40:01 AM 51.6701 -4.3790 99° East 459 528 33,000  Level FlightAware ADS-B
Sat 12:40:08 AM 51.6676 -4.3538 99° East 460 529 33,000  Level FlightAware ADS-B (EGCW)
Sat 12:40:17 AM 51.6673 -4.3504 98° East 459 528 33,000  Level FlightAware ADS-B (EGDX / DGX)
Sat 12:40:31 AM 51.6598 -4.2772 99° East 460 529 33,000  Level FlightAware ADS-B (CYOW)
Sat 12:40:37 AM 51.6577 -4.2573 99° East 459 528 33,000  Level FlightAware ADS-B (LSPL)
Sat 12:40:41 AM 51.6563 -4.2435 99° East 459 528 33,000  Level FlightAware ADS-B
Sat 12:40:52 AM 51.6526 -4.2075 99° East 460 529 33,000  Level FlightAware ADS-B
Sat 12:40:57 AM 51.6507 -4.1885 99° East 459 528 33,000  Level FlightAware ADS-B (LSPL)
Sat 12:41:08 AM 51.6470 -4.1522 99° East 459 528 33,000  Level FlightAware ADS-B (LSPL)
Sat 12:41:12 AM 51.6457 -4.1400 99° East 458 527 33,000 -667 Level FlightAware ADS-B
Sat 12:41:17 AM 51.6439 -4.1216 99° East 458 527 32,900 -600 Descending FlightAware ADS-B (LSPL)
Sat 12:41:22 AM 51.6423 -4.1065 100° East 458 527 32,900 -1,091 Level FlightAware ADS-B
Sat 12:41:28 AM 51.6418 -4.1011 100° East 459 528 32,700 -2,000 Descending FlightAware ADS-B (EGDX / DGX)
Sat 12:41:31 AM 51.6389 -4.0732 99° East 458 527 32,600 -1,286 Descending FlightAware ADS-B
Sat 12:41:42 AM 51.6353 -4.0385 99° East 459 528 32,400 -1,355 Descending FlightAware ADS-B
Sat 12:42:02 AM 51.6283 -3.9720 100° East 461 531 31,900 -1,714 Descending FlightAware ADS-B
Sat 12:42:10 AM 51.6254 -3.9449 100° East 461 531 31,600 -1,421 Descending FlightAware ADS-B (EGDX / DGX)
Sat 12:42:40 AM 51.6145 -3.8416 100° East 464 534 31,000 -968 Descending FlightAware UK
Sat 12:42:41 AM 51.6142 -3.8406 100° East 465 535 31,100 -923 Climbing FlightAware ADS-B
Sat 12:42:53 AM 51.6094 -3.7964 100° East 465 535 30,800 -1,355 Descending FlightAware ADS-B
Sat 12:43:12 AM 51.6030 -3.7373 100° East 466 536 30,400 -1,294 Descending FlightAware ADS-B
Sat 12:43:44 AM 51.5907 -3.6251 100° East 467 537 29,700 -1,364 Descending FlightAware ADS-B (EGDM)
Sat 12:43:56 AM 51.5871 -3.5913 100° East 467 537 29,400 -1,250 Descending FlightAware ADS-B (EGDX / DGX)
Sat 12:44:08 AM 51.5820 -3.5433 100° East 466 536 29,200 -1,143 Descending FlightAware ADS-B
Sat 12:44:38 AM 51.5707 -3.4391 100° East 464 534 28,600 -1,135 Descending FlightAware ADS-B (EGCW)
Sat 12:44:45 AM 51.5682 -3.4171 100° East 465 535 28,500 -960 Descending FlightAware ADS-B
Sat 12:45:03 AM 51.5616 -3.3563 100° East 462 532 28,200 -1,091 Descending FlightAware ADS-B
Sat 12:45:07 AM 51.5604 -3.3431 98° East 462 532 28,100 -1,111 Descending FlightAware ADS-B
Sat 12:45:30 AM 51.5573 -3.2642 94° East 453 521 27,700 -968 Descending FlightAware ADS-B
Sat 12:45:38 AM 51.5567 -3.2378 92° East 451 519 27,600 -774 Descending FlightAware ADS-B
Sat 12:46:01 AM 51.5549 -3.1629 92° East 443 510 27,300 -774 Descending FlightAware ADS-B
Sat 12:46:09 AM 51.5542 -3.1368 92° East 440 506 27,200 -882 Descending FlightAware ADS-B (EGCW)
Sat 12:46:35 AM 51.5521 -3.0532 92° East 427 491 26,800 -882 Descending FlightAware ADS-B
Sat 12:46:43 AM 51.5519 -3.0428 92° East 421 484 26,700 -1,059 Descending FlightAware ADS-B (EGCW)
Sat 12:46:52 AM 51.5511 -2.9997 92° East 415 478 26,500 -1,895 Descending FlightAware ADS-B
Sat 12:47:02 AM 51.5505 -2.9694 92° East 412 474 26,100 -2,308 Descending FlightAware ADS-B
Sat 12:47:05 AM 51.5502 -2.9591 92° East 412 474 26,000 -2,100 Descending FlightAware ADS-B
Sat 12:47:22 AM 51.5491 -2.9080 92° East 410 472 25,400 -2,118 Descending FlightAware ADS-B
Sat 12:47:39 AM 51.5481 -2.8583 92° East 410 472 24,800 -2,182 Descending FlightAware ADS-B
Sat 12:47:44 AM 51.5478 -2.8408 92° East 408 470 24,600 -2,000 Descending FlightAware ADS-B
Sat 12:47:57 AM 51.5470 -2.8020 92° East 406 467 24,200 -2,000 Descending FlightAware ADS-B (LSPL)
Sat 12:48:05 AM 51.5467 -2.7792 91° East 405 466 23,900 -2,308 Descending FlightAware ADS-B
Sat 12:48:10 AM 51.5463 -2.7627 92° East 404 465 23,700 -2,500 Descending FlightAware ADS-B
Sat 12:48:17 AM 51.5466 -2.7773 272° West 405 466 23,400 -1,548 Descending FlightAware ADS-B
Sat 12:48:41 AM 51.5446 -2.6733 92° East 396 456 22,900 -1,400 Descending FlightAware ADS-B
Sat 12:48:47 AM 51.5442 -2.6549 92° East 395 455 22,700 -2,200 Descending FlightAware ADS-B (EGCW)
Sat 12:49:11 AM 51.5428 -2.5838 92° East 393 452 21,800 -2,308 Descending FlightAware ADS-B
Sat 12:49:13 AM 51.5428 -2.5784 90° East 392 451 21,700 -1,714 Descending FlightAware ADS-B (EGDM)
Sat 12:49:18 AM 51.5433 -2.5651 87° East 389 448 21,600 -1,636 Descending FlightAware ADS-B
Sat 12:49:24 AM 51.5450 -2.5479 81° East 386 444 21,400 -1,800 Descending FlightAware ADS-B (EGDM)
Sat 12:49:48 AM 51.5533 -2.4810 79° East 382 440 20,700 -1,862 Descending FlightAware ADS-B
Sat 12:49:53 AM 51.5550 -2.4664 79° East 380 437 20,500 -1,846 Descending FlightAware ADS-B
Sat 12:50:01 AM 51.5437 -2.6307 264° West 394 453 20,300 -1,714 Descending FlightAware ADS-B
Sat 12:50:07 AM 51.5588 -2.4332 83° East 381 438 20,100 -1,765 Descending FlightAware ADS-B (EGDX / DGX)
Sat 12:50:18 AM 51.5625 -2.3975 80° East 379 436 19,800 -1,500 Descending FlightAware ADS-B
Sat 12:50:19 AM 51.5629 -2.3945 79° East 378 435 19,800 -1,714 Level FlightAware ADS-B
Sat 12:50:46 AM 51.5702 -2.3181 81° East 380 437 19,000 -1,688 Descending FlightAware ADS-B
Sat 12:50:51 AM 51.5714 -2.3053 81° East 381 438 18,900 -1,548 Descending FlightAware ADS-B
Sat 12:51:17 AM 51.5776 -2.2343 82° East 379 436 18,200 -1,800 Descending FlightAware ADS-B
Sat 12:51:21 AM 51.5787 -2.2218 82° East 378 435 18,000 -1,742 Descending FlightAware ADS-B
Sat 12:51:48 AM 51.5851 -2.1486 82° East 377 434 17,300 -1,548 Descending FlightAware ADS-B
Sat 12:51:52 AM 51.5859 -2.1386 82° East 377 434 17,200 -1,600 Descending FlightAware ADS-B
Sat 12:52:18 AM 51.5922 -2.0657 82° East 374 430 16,500 -1,600 Descending FlightAware ADS-B
Sat 12:52:22 AM 51.5932 -2.0547 81° East 373 429 16,400 -1,714 Descending FlightAware ADS-B
Sat 12:52:25 AM 51.5941 -2.0454 82° East 371 427 16,300 -2,000 Descending FlightAware ADS-B
Sat 12:52:28 AM 51.5914 -2.0753 262° West 374 430 16,200 -1,826 Descending FlightAware ADS-B (CYOW)
Sat 12:52:48 AM 51.6000 -1.9835 81° East 369 425 15,600 -1,742 Descending FlightAware ADS-B
Sat 12:52:59 AM 51.6026 -1.9580 81° East 369 425 15,300 -1,714 Descending FlightAware ADS-B (EGDM)
Sat 12:53:09 AM 51.6057 -1.9260 81° East 366 421 15,000 -1,667 Descending FlightAware ADS-B
Sat 12:53:17 AM 51.6077 -1.9047 81° East 367 422 14,800 -1,548 Descending FlightAware ADS-B
Sat 12:53:40 AM 51.6133 -1.8441 81° East 366 421 14,200 -1,355 Descending FlightAware ADS-B
Sat 12:53:48 AM 51.6153 -1.8225 82° East 366 421 14,100 -364 Descending FlightAware ADS-B
Sat 12:54:13 AM 51.6212 -1.7593 81° East 351 404 14,000 -200 Descending FlightAware ADS-B (EGDM)
Sat 12:54:18 AM 51.6227 -1.7428 82° East 346 398 14,000  Level FlightAware ADS-B
Sat 12:54:49 AM 51.6295 -1.6684 82° East 316 364 14,000  Level FlightAware ADS-B
Sat 12:54:52 AM 51.6300 -1.6631 82° East 312 359 14,000  Level FlightAware ADS-B (EGDM)
Sat 12:55:02 AM 51.6321 -1.6396 82° East 303 349 14,000  Level FlightAware ADS-B
Sat 12:55:09 AM 51.6335 -1.6235 82° East 299 344 14,000  Level FlightAware ADS-B
Sat 12:55:19 AM 51.6356 -1.6015 81° East 289 333 14,000  Level FlightAware ADS-B
Sat 12:55:43 AM 51.6400 -1.5532 82° East 283 326 14,000  Level FlightAware ADS-B
Sat 12:55:49 AM 51.6413 -1.5385 82° East 283 326 14,000  Level FlightAware ADS-B
Sat 12:55:56 AM 51.6406 -1.5454 261° West 282 325 14,000  Level FlightAware ADS-B
Sat 12:56:20 AM 51.6468 -1.4762 82° East 280 322 14,000 -375 Level FlightAware ADS-B
Sat 12:56:28 AM 51.6483 -1.4606 81° East 280 322 13,800 -1,385 Descending FlightAware ADS-B
Sat 12:56:46 AM 51.6518 -1.4209 82° East 279 321 13,400 -1,091 Descending FlightAware ADS-B
Sat 12:56:50 AM 51.6525 -1.4137 81° East 281 323 13,400 -1,091 Level FlightAware ADS-B
Sat 12:56:57 AM 51.6537 -1.3995 82° East 280 322 13,200 -1,412 Descending FlightAware ADS-B
Sat 12:57:07 AM 51.6556 -1.3780 82° East 279 321 13,000 -1,043 Descending FlightAware ADS-B
Sat 12:57:20 AM 51.6580 -1.3509 82° East 280 322 12,800 -1,200 Descending FlightAware ADS-B
Sat 12:57:37 AM 51.6611 -1.3173 82° East 279 321 12,400 -1,161 Descending FlightAware ADS-B
Sat 12:57:51 AM 51.6636 -1.2891 82° East 277 319 12,200 -938 Descending FlightAware ADS-B
Sat 12:58:09 AM 51.6667 -1.2523 82° East 274 315 11,900 -1,000 Descending FlightAware ADS-B (EGDM)
Sat 12:58:21 AM 51.6689 -1.2282 82° East 273 314 11,700 -1,200 Descending FlightAware ADS-B
Sat 12:58:39 AM 51.6625 -1.3009 262° West 277 319 11,300 -1,200 Descending FlightAware ADS-B
Sat 12:58:51 AM 51.6741 -1.1671 82° East 273 314 11,100 -1,161 Descending FlightAware ADS-B
Sat 12:59:10 AM 51.6773 -1.1304 82° East 274 315 10,700 -1,241 Descending FlightAware ADS-B (EGDM)
Sat 12:59:20 AM 51.6791 -1.1087 82° East 273 314 10,500 -1,200 Descending FlightAware ADS-B
Sat 12:59:40 AM 51.6826 -1.0704 82° East 273 314 10,100 -1,200 Descending FlightAware ADS-B
Sat 12:59:55 AM 51.6852 -1.0396 82° East 272 313 9,800 -1,333 Descending FlightAware ADS-B
Sat 12:59:58 AM 51.6841 -1.0528 262° West 272 313 9,700 -1,125 Descending FlightAware ADS-B
Sat 01:00:11 AM 51.6879 -1.0080 82° East 269 310 9,500 -783 Descending FlightAware ADS-B
Sat 01:00:21 AM 51.6841 -1.0528 262° West 269 310 9,400 -800 Descending FlightAware ADS-B
Sat 01:00:26 AM 51.6905 -0.9782 82° East 267 307 9,300 -1,200 Descending FlightAware ADS-B
Sat 01:00:36 AM 51.6918 -0.9630 82° East 266 306 9,100 -923 Descending FlightAware ADS-B
Sat 01:00:39 AM 51.6928 -0.9520 82° East 265 305 9,100 -400 Level FlightAware ADS-B
Sat 01:00:51 AM 51.6945 -0.9316 82° East 263 303 9,000 -400 Descending FlightAware ADS-B (EGDM)
Sat 01:00:54 AM 51.6952 -0.9227 83° East 263 303 9,000  Level FlightAware ADS-B
Sat 01:01:06 AM 51.6969 -0.9026 82° East 263 303 9,000  Level FlightAware ADS-B
Sat 01:01:10 AM 51.6977 -0.8929 83° East 263 303 9,000  Level FlightAware ADS-B
Sat 01:01:22 AM 51.6993 -0.8741 82° East 263 303 9,000  Level FlightAware ADS-B
Sat 01:01:25 AM 51.7002 -0.8636 82° East 263 303 9,000  Level FlightAware ADS-B
Sat 01:01:37 AM 51.7022 -0.8397 82° East 264 304 9,000  Level FlightAware ADS-B
Sat 01:01:40 AM 51.7026 -0.8340 83° East 264 304 9,000  Level FlightAware ADS-B
Sat 01:01:55 AM 51.7051 -0.8045 82° East 264 304 9,000  Level FlightAware ADS-B
Sat 01:02:10 AM 51.7076 -0.7750 82° East 263 303 9,000  Level FlightAware ADS-B
Sat 01:02:18 AM 51.7086 -0.7622 83° East 263 303 9,000  Level FlightAware ADS-B
Sat 01:02:26 AM 51.7100 -0.7451 83° East 263 303 9,000  Level FlightAware ADS-B
Sat 01:02:41 AM 51.7125 -0.7164 82° East 263 303 9,000  Level FlightAware ADS-B
Sat 01:02:50 AM 51.7138 -0.7005 83° East 262 302 9,000  Level FlightAware ADS-B
Sat 01:02:56 AM 51.7149 -0.6868 82° East 264 304 9,000  Level FlightAware ADS-B
Sat 01:03:06 AM 51.7165 -0.6668 83° East 264 304 9,000  Level FlightAware ADS-B
Sat 01:03:10 AM 51.7170 -0.6609 82° East 265 305 9,000  Level FlightAware ADS-B
Sat 01:03:22 AM 51.7191 -0.6365 82° East 265 305 9,000  Level FlightAware ADS-B
Sat 01:03:29 AM 51.7200 -0.6256 82° East 264 304 9,000  Level FlightAware ADS-B
Sat 01:03:37 AM 51.7215 -0.6068 83° East 264 304 9,000  Level FlightAware ADS-B
Sat 01:03:51 AM 51.7233 -0.5853 82° East 265 305 9,000  Level FlightAware ADS-B
Sat 01:03:53 AM 51.7240 -0.5761 83° East 265 305 9,000  Level FlightAware ADS-B
Sat 01:03:59 AM 51.7249 -0.5644 83° East 265 305 9,000  Level FlightAware ADS-B
Sat 01:04:02 AM 51.7250 -0.5582 88° East 265 305 9,000  Level FlightAware ADS-B
Sat 01:04:06 AM 51.7247 -0.5502 93° East 265 305 9,000  Level FlightAware ADS-B
Sat 01:04:10 AM 51.7237 -0.5428 102° East 265 305 9,000  Level FlightAware ADS-B
Sat 01:04:11 AM 51.7234 -0.5409 107° East 265 305 9,000  Level FlightAware ADS-B
Sat 01:04:13 AM 51.7221 -0.5355 111° Southeast 265 305 9,000  Level FlightAware ADS-B
Sat 01:04:17 AM 51.7200 -0.5293 119° Southeast 265 305 9,000  Level FlightAware ADS-B
Sat 01:04:21 AM 51.7179 -0.5242 124° Southeast 265 305 9,000  Level FlightAware ADS-B
Sat 01:04:24 AM 51.7150 -0.5186 130° Southeast 264 304 9,000  Level FlightAware ADS-B
Sat 01:04:28 AM 51.7116 -0.5135 137° Southeast 264 304 9,000  Level FlightAware ADS-B
Sat 01:04:31 AM 51.7095 -0.5109 142° Southeast 263 303 9,000  Level FlightAware ADS-B
Sat 01:04:34 AM 51.7047 -0.5064 150° Southeast 263 303 9,000  Level FlightAware ADS-B
Sat 01:04:39 AM 51.7001 -0.5033 158° South 262 302 9,000  Level FlightAware ADS-B
Sat 01:04:42 AM 51.6962 -0.5017 165° South 260 299 9,000  Level FlightAware ADS-B
Sat 01:04:43 AM 51.6950 -0.5013 170° South 260 299 9,000  Level FlightAware ADS-B
Sat 01:04:46 AM 51.6914 -0.5006 173° South 260 299 9,000  Level FlightAware ADS-B
Sat 01:04:49 AM 51.6876 -0.5005 179° South 258 297 9,000  Level FlightAware ADS-B
Sat 01:04:53 AM 51.6832 -0.5013 186° South 257 296 9,000  Level FlightAware ADS-B
Sat 01:04:57 AM 51.6783 -0.5031 193° South 256 295 9,000  Level FlightAware ADS-B
Sat 01:05:02 AM 51.6730 -0.5065 202° Southwest 254 292 9,000  Level FlightAware ADS-B
Sat 01:05:06 AM 51.6696 -0.5096 209° Southwest 251 289 9,000  Level FlightAware ADS-B
Sat 01:05:09 AM 51.6666 -0.5129 215° Southwest 250 288 9,000  Level FlightAware ADS-B
Sat 01:05:13 AM 51.6633 -0.5178 222° Southwest 248 285 9,000  Level FlightAware ADS-B
Sat 01:05:17 AM 51.6604 -0.5232 229° Southwest 247 284 9,000  Level FlightAware ADS-B
Sat 01:05:20 AM 51.6584 -0.5279 235° Southwest 245 282 9,000  Level FlightAware ADS-B
Sat 01:05:23 AM 51.6573 -0.5311 240° Southwest 244 281 9,000  Level FlightAware ADS-B
Sat 01:05:27 AM 51.6548 -0.5404 247° West 244 281 9,000  Level FlightAware ADS-B
Sat 01:05:31 AM 51.6537 -0.5472 255° West 243 280 9,000  Level FlightAware ADS-B
Sat 01:05:33 AM 51.6534 -0.5501 261° West 243 280 9,000  Level FlightAware ADS-B
Sat 01:05:34 AM 51.6533 -0.5530 266° West 242 278 9,000  Level FlightAware ADS-B
Sat 01:05:38 AM 51.6532 -0.5587 268° West 241 277 9,000  Level FlightAware ADS-B
Sat 01:05:41 AM 51.6536 -0.5646 276° West 242 278 9,000  Level FlightAware ADS-B
Sat 01:05:43 AM 51.6540 -0.5680 280° West 241 277 9,000  Level FlightAware ADS-B
Sat 01:05:45 AM 51.6547 -0.5723 285° West 242 278 9,000  Level FlightAware ADS-B
Sat 01:05:49 AM 51.6561 -0.5779 292° West 242 278 9,000  Level FlightAware ADS-B
Sat 01:05:52 AM 51.6579 -0.5834 298° West 242 278 9,000  Level FlightAware ADS-B
Sat 01:05:53 AM 51.6582 -0.5843 301° West 243 280 9,000  Level FlightAware ADS-B
Sat 01:05:55 AM 51.6600 -0.5882 306° West 244 281 9,000  Level FlightAware ADS-B
Sat 01:05:58 AM 51.6622 -0.5923 311° West 245 282 9,000 -750 Level FlightAware ADS-B
Sat 01:06:03 AM 51.6658 -0.5977 317° Northwest 248 285 8,900 -750 Descending FlightAware ADS-B
Sat 01:06:06 AM 51.6686 -0.6010 324° Northwest 250 288 8,900 -1,000 Level FlightAware ADS-B
Sat 01:06:09 AM 51.6720 -0.6040 331° Northwest 254 292 8,800 -1,000 Descending FlightAware ADS-B
Sat 01:06:12 AM 51.6737 -0.6052 335° Northwest 255 293 8,800  Level FlightAware ADS-B
Sat 01:06:13 AM 51.6760 -0.6067 339° North 256 295 8,800 -1,200 Level FlightAware ADS-B
Sat 01:06:17 AM 51.6806 -0.6087 345° North 258 297 8,700 -1,500 Descending FlightAware ADS-B
Sat 01:06:21 AM 51.6863 -0.6098 353° North 259 298 8,600 -1,200 Descending FlightAware ADS-B
Sat 01:06:22 AM 51.6863 -0.6098 180° South 259 298 8,600 -2,000 Level FlightAware ADS-B
Sat 01:06:24 AM 51.6900 -0.6097 North 260 299 8,500 -1,200 Descending FlightAware ADS-B
Sat 01:06:27 AM 51.6935 -0.6091 North 260 299 8,500 -857 Level FlightAware ADS-B
Sat 01:06:31 AM 51.6971 -0.6078 12° North 261 300 8,400 -1,200 Descending FlightAware ADS-B
Sat 01:06:32 AM 51.6983 -0.6072 17° North 260 299 8,400  Level FlightAware ADS-B
Sat 01:06:34 AM 51.7012 -0.6055 20° North 261 300 8,400  Level FlightAware ADS-B
Sat 01:06:38 AM 51.7049 -0.6027 25° Northeast 262 302 8,400 -750 Level FlightAware ADS-B
Sat 01:06:42 AM 51.7093 -0.5980 34° Northeast 261 300 8,300 -1,200 Descending FlightAware ADS-B
Sat 01:06:43 AM 51.7084 -0.5991 215° Southwest 261 300 8,300  Level FlightAware ADS-B
Sat 01:06:45 AM 51.7123 -0.5939 39° Northeast 260 299 8,300 -857 Level FlightAware ADS-B
Sat 01:06:50 AM 51.7163 -0.5866 49° Northeast 260 299 8,200 -1,000 Descending FlightAware ADS-B
Sat 01:06:51 AM 51.7167 -0.5856 53° Northeast 260 299 8,200  Level FlightAware ADS-B
Sat 01:06:53 AM 51.7184 -0.5816 56° Northeast 259 298 8,200 -1,000 Level FlightAware ADS-B
Sat 01:06:57 AM 51.7204 -0.5754 62° Northeast 259 298 8,100 -1,714 Descending FlightAware ADS-B
Sat 01:07:00 AM 51.7218 -0.5695 69° East 259 298 8,000 -1,000 Descending FlightAware ADS-B
Sat 01:07:03 AM 51.7226 -0.5649 74° East 258 297 8,000  Level FlightAware ADS-B
Sat 01:07:04 AM 51.7228 -0.5629 81° East 258 297 8,000  Level FlightAware ADS-B
Sat 01:07:07 AM 51.7233 -0.5569 82° East 260 299 8,000  Level FlightAware ADS-B
Sat 01:07:12 AM 51.7234 -0.5469 89° East 260 299 8,000  Level FlightAware ADS-B
Sat 01:07:13 AM 51.7233 -0.5459 99° East 260 299 8,000  Level FlightAware ADS-B
Sat 01:07:19 AM 51.7217 -0.5337 102° East 261 300 8,000  Level FlightAware ADS-B
Sat 01:07:23 AM 51.7200 -0.5268 112° Southeast 262 302 8,000  Level FlightAware ADS-B
Sat 01:07:26 AM 51.7184 -0.5215 116° Southeast 261 300 8,000  Level FlightAware ADS-B
Sat 01:07:29 AM 51.7163 -0.5165 124° Southeast 262 302 8,000 -857 Level FlightAware ADS-B
Sat 01:07:33 AM 51.7146 -0.5127 126° Southeast 263 303 7,900 -1,000 Descending FlightAware ADS-B
Sat 01:07:35 AM 51.7118 -0.5078 132° Southeast 264 304 7,900 -1,000 Level FlightAware ADS-B
Sat 01:07:39 AM 51.7079 -0.5025 140° Southeast 265 305 7,800 -1,500 Descending FlightAware ADS-B
Sat 01:07:43 AM 51.7032 -0.4978 148° Southeast 265 305 7,700 -1,714 Descending FlightAware ADS-B
Sat 01:07:46 AM 51.7000 -0.4953 154° Southeast 264 304 7,600 -1,200 Descending FlightAware ADS-B
Sat 01:07:53 AM 51.6931 -0.4907 158° South 262 302 7,500 -923 Descending FlightAware ADS-B
Sat 01:07:59 AM 51.6862 -0.4868 160° South 260 299 7,400 -800 Descending FlightAware ADS-B
Sat 01:08:08 AM 51.6757 -0.4810 161° South 259 298 7,300 -857 Descending FlightAware ADS-B
Sat 01:08:20 AM 51.6619 -0.4732 161° South 258 297 7,100 -800 Descending FlightAware ADS-B
Sat 01:08:23 AM 51.6592 -0.4717 161° South 258 297 7,100 -375 Level FlightAware ADS-B
Sat 01:08:36 AM 51.6447 -0.4634 160° South 256 295 7,000 -316 Descending FlightAware ADS-B
Sat 01:08:42 AM 51.6371 -0.4587 159° South 255 293 7,000  Level FlightAware ADS-B
Sat 01:08:43 AM 51.6381 -0.4594 336° Northwest 255 293 7,000  Level FlightAware ADS-B
Sat 01:08:46 AM 51.6338 -0.4562 156° South 255 293 7,000  Level FlightAware ADS-B
Sat 01:08:50 AM 51.6296 -0.4522 149° Southeast 256 295 7,000  Level FlightAware ADS-B
Sat 01:08:54 AM 51.6256 -0.4472 142° Southeast 258 297 7,000  Level FlightAware ADS-B
Sat 01:08:57 AM 51.6251 -0.4464 132° Southeast 259 298 7,000  Level FlightAware ADS-B
Sat 01:08:58 AM 51.6225 -0.4420 134° Southeast 259 298 7,000  Level FlightAware ADS-B
Sat 01:09:01 AM 51.6201 -0.4371 128° Southeast 260 299 7,000  Level FlightAware ADS-B
Sat 01:09:04 AM 51.6182 -0.4320 121° Southeast 260 299 7,000  Level FlightAware ADS-B
Sat 01:09:10 AM 51.6152 -0.4212 114° Southeast 261 300 7,000  Level FlightAware ADS-B
Sat 01:09:14 AM 51.6145 -0.4173 106° East 261 300 7,000  Level FlightAware ADS-B
Sat 01:09:22 AM 51.6122 -0.3988 101° East 261 300 7,000  Level FlightAware ADS-B
Sat 01:09:33 AM 51.6102 -0.3769 98° East 259 298 7,000  Level FlightAware ADS-B
Sat 01:09:34 AM 51.6101 -0.3759 99° East 259 298 7,000 -462 Level FlightAware ADS-B
Sat 01:09:46 AM 51.6080 -0.3525 98° East 259 298 6,900 -316 Descending FlightAware ADS-B
Sat 01:09:53 AM 51.6073 -0.3447 99° East 259 298 6,900 -375 Level FlightAware ADS-B
Sat 01:10:02 AM 51.6052 -0.3224 98° East 259 298 6,800 -632 Descending FlightAware ADS-B
Sat 01:10:12 AM 51.6036 -0.3048 98° East 259 298 6,700 -750 Descending FlightAware ADS-B
Sat 01:10:18 AM 51.6024 -0.2923 99° East 259 298 6,600 -600 Descending FlightAware ADS-B
Sat 01:10:32 AM 51.5999 -0.2661 99° East 258 297 6,500 -375 Descending FlightAware ADS-B
Sat 01:10:34 AM 51.5996 -0.2624 98° East 258 297 6,500 -632 Level FlightAware ADS-B
Sat 01:10:51 AM 51.5967 -0.2295 98° East 260 299 6,300 -667 Descending FlightAware ADS-B
Sat 01:10:52 AM 51.5973 -0.2359 278° West 260 299 6,300 -400 Level FlightAware ADS-B
Sat 01:11:06 AM 51.5941 -0.2005 98° East 256 295 6,200 -545 Descending FlightAware ADS-B
Sat 01:11:14 AM 51.5928 -0.1862 98° East 253 291 6,100 -706 Descending FlightAware ADS-B
Sat 01:11:23 AM 51.5912 -0.1702 99° East 249 287 6,000 -900 Descending FlightAware ADS-B
Sat 01:11:34 AM 51.5893 -0.1501 99° East 244 281 5,800 -923 Descending FlightAware ADS-B
Sat 01:11:36 AM 51.5889 -0.1466 100° East 243 280 5,800 -400 Level FlightAware ADS-B
Sat 01:11:49 AM 51.5864 -0.1236 100° East 238 274 5,700 -429 Descending FlightAware ADS-B
Sat 01:11:50 AM 51.5868 -0.1262 284° West 238 274 5,700 -857 Level FlightAware ADS-B
Sat 01:11:56 AM 51.5846 -0.1125 104° East 235 270 5,600 -667 Descending FlightAware ADS-B
Sat 01:11:59 AM 51.5831 -0.1064 112° Southeast 232 267 5,600  Level FlightAware ADS-B
Sat 01:12:04 AM 51.5812 -0.0995 114° Southeast 232 267 5,600 -545 Level FlightAware ADS-B
Sat 01:12:10 AM 51.5784 -0.0897 115° Southeast 231 266 5,500 -1,000 Descending FlightAware ADS-B
Sat 01:12:16 AM 51.5758 -0.0806 115° Southeast 229 264 5,400 -1,000 Descending FlightAware ADS-B
Sat 01:12:22 AM 51.5727 -0.0717 119° Southeast 226 260 5,300 -500 Descending FlightAware ADS-B
Sat 01:12:28 AM 51.5694 -0.0638 124° Southeast 223 257 5,300  Level FlightAware ADS-B
Sat 01:12:31 AM 51.5673 -0.0587 124° Southeast 221 254 5,300 -857 Level FlightAware ADS-B
Sat 01:12:35 AM 51.5651 -0.0532 122° Southeast 220 253 5,200 -545 Descending FlightAware ADS-B
Sat 01:12:42 AM 51.5618 -0.0449 123° Southeast 216 249 5,200 -462 Level FlightAware ADS-B
Sat 01:12:48 AM 51.5587 -0.0385 128° Southeast 213 245 5,100 -750 Descending FlightAware ADS-B
Sat 01:12:50 AM 51.5564 -0.0350 136° Southeast 213 245 5,100 -1,200 Level FlightAware ADS-B
Sat 01:12:53 AM 51.5539 -0.0319 143° Southeast 212 244 5,000 -750 Descending FlightAware ADS-B
Sat 01:12:58 AM 51.5498 -0.0286 153° Southeast 213 245 5,000 -600 Level FlightAware ADS-B
Sat 01:13:03 AM 51.5450 -0.0266 165° South 208 239 4,900 -1,200 Descending FlightAware ADS-B
Sat 01:13:08 AM 51.5420 -0.0259 172° South 206 237 4,800 -857 Descending FlightAware ADS-B
Sat 01:13:10 AM 51.5381 -0.0256 177° South 205 236 4,800  Level FlightAware ADS-B
Sat 01:13:15 AM 51.5339 -0.0259 183° South 203 234 4,800  Level FlightAware ADS-B
Sat 01:13:18 AM 51.5311 -0.0266 189° South 202 232 4,800 -750 Level FlightAware ADS-B
Sat 01:13:23 AM 51.5269 -0.0284 194° South 198 228 4,700 -667 Descending FlightAware ADS-B
Sat 01:13:27 AM 51.5237 -0.0304 201° Southwest 196 226 4,700  Level FlightAware ADS-B
Sat 01:13:28 AM 51.5229 -0.0310 206° Southwest 195 224 4,700  Level FlightAware ADS-B
Sat 01:13:35 AM 51.5176 -0.0367 214° Southwest 195 224 4,700  Level FlightAware ADS-B
Sat 01:13:40 AM 51.5146 -0.0419 227° Southwest 194 223 4,700  Level FlightAware ADS-B
Sat 01:13:43 AM 51.5127 -0.0457 231° Southwest 192 221 4,700  Level FlightAware ADS-B
Sat 01:13:46 AM 51.5109 -0.0496 234° Southwest 189 217 4,700 -400 Level FlightAware ADS-B
Sat 01:13:58 AM 51.5051 -0.0635 236° Southwest 189 217 4,600 -286 Descending FlightAware ADS-B
Sat 01:14:07 AM 51.5023 -0.0710 239° Southwest 188 216 4,600 -375 Level FlightAware ADS-B
Sat 01:14:14 AM 51.4984 -0.0818 240° Southwest 190 219 4,500 -857 Descending FlightAware ADS-B
Sat 01:14:21 AM 51.4950 -0.0913 240° Southwest 190 219 4,400 -923 Descending FlightAware ADS-B
Sat 01:14:27 AM 51.4937 -0.0952 241° Southwest 189 217 4,300 -1,125 Descending FlightAware ADS-B
Sat 01:14:37 AM 51.4887 -0.1096 241° Southwest 188 216 4,100 -947 Descending FlightAware ADS-B
Sat 01:14:46 AM 51.4845 -0.1218 241° Southwest 189 217 4,000 -923 Descending FlightAware ADS-B
Sat 01:14:50 AM 51.4833 -0.1257 244° Southwest 190 219 3,900 -1,500 Descending FlightAware ADS-B
Sat 01:14:54 AM 51.4817 -0.1312 245° Southwest 190 219 3,800 -1,500 Descending FlightAware ADS-B
Sat 01:14:58 AM 51.4803 -0.1370 249° West 189 217 3,700 -1,200 Descending FlightAware ADS-B
Sat 01:15:04 AM 51.4790 -0.1444 254° West 188 216 3,600 -667 Descending FlightAware ADS-B
Sat 01:15:07 AM 51.4786 -0.1468 257° West 187 215 3,600 -1,500 Level FlightAware ADS-B
Sat 01:15:08 AM 51.4783 -0.1497 259° West 186 214 3,500 -2,400 Descending FlightAware ADS-B
Sat 01:15:12 AM 51.4777 -0.1562 262° West 186 214 3,400 -1,059 Descending FlightAware ADS-B
Sat 01:15:25 AM 51.4771 -0.1736 267° West 184 212 3,200 -857 Descending FlightAware ADS-B
Sat 01:15:26 AM 51.4771 -0.1731 91° East 183 211 3,200 -1,000 Level FlightAware ADS-B
Sat 01:15:31 AM 51.4772 -0.1812 271° West 182 209 3,100 -1,385 Descending FlightAware ADS-B
Sat 01:15:39 AM 51.4776 -0.1926 273° West 180 207 2,900 -800 Descending FlightAware ADS-B
Sat 01:15:46 AM 51.4780 -0.2009 274° West 181 208 2,900 -500 Level FlightAware ADS-B
Sat 01:15:51 AM 51.4783 -0.2082 274° West 181 208 2,800 -1,000 Descending FlightAware ADS-B
Sat 01:16:04 AM 51.4783 -0.2251 270° West 183 211 2,600 -1,200 Descending FlightAware ADS-B
Sat 01:16:06 AM 51.4783 -0.2282 269° West 183 211 2,500 -1,200 Descending FlightAware ADS-B
Sat 01:16:24 AM 51.4781 -0.2529 269° West 183 211 2,200 -947 Descending FlightAware ADS-B
Sat 01:16:25 AM 51.4782 -0.2543 274° West 178 205 2,200 -818 Level FlightAware ADS-B
Sat 01:16:46 AM 51.4781 -0.2800 270° West 166 191 1,900 -878 Descending FlightAware ADS-B
Sat 01:17:06 AM 51.4779 -0.3037 269° West 159 183 1,600 -947 Descending FlightAware ADS-B
Sat 01:17:24 AM 51.4781 -0.3257 271° West 159 183 1,300 -769 Descending FlightAware ADS-B
Sat 01:17:45 AM 51.4779 -0.3491 269° West 149 171 1,100 -714 Descending FlightAware ADS-B
Sat 01:18:06 AM 51.4779 -0.3711 270° West 142 163 800 -857 Descending FlightAware ADS-B
Sat 01:18:27 AM 51.4779 -0.3928 270° West 139 160 500 -808 Descending FlightAware ADS-B
Sat 01:18:58 AM 51.4780 -0.4250 270° West 141 162 100 -750 Descending FlightAware ADS-B
Sat 01:18:59 AM 51.4777 -0.4272 270° West 146 168 100  Level FlightAware UK
Sat 01:19:38 AM 51.4770 -0.4600 267° West 143 165 -154 Descending FlightAware ADS-B

Login

Don't have an account? Register now (free) for customized features, flight alerts, and more!